Hinesburg, Vermont
Current Conditions -  °F | °C
As of 11:54 AM on Sunday 23 Nov 2014 (Local Time) from KBTV Reporting Station
Overcast Overcast  
Wind Chill: 42°   Ceiling: 6000
Heat Index: 48°   Visibility: 10mi
Dew Point: 38°   Wind: 14mph
Humidity: 68%   Direction: 190°S
Pressure: 30.04"   Gusts: NA
Location:  44.33°N, 73.11°W
Report Text: KBTV 231654Z 19012KT 10SM SCT033 OVC060 09/03 A3004 RMK AO2 SLP175 T00890033
Loading
Personal Weather Stations






























Interactive Weather Map New forecast layout! Learn more

10-Day Weather Forecast

Advertisements
Track Severe Weather on mobile